Terminal Aerodrome Forecast
Issued by NWS

Home | Current Version | Previous Version | Text Only | Print | Product List | Glossary On
Versions: 1 2 3 4 5 6 7 8 9 10 11 12 13 14 15 16 17 18 19 20 21 22 23 24 25 26
000
FTUS42 KCAE 272300
TAFOGB
TAF
KOGB 272339Z 2800/2824 VRB04KT P6SM FEW050 BKN200
     FM280200 05007KT P6SM BKN040
     FM281300 05010G17KT P6SM SCT035 OVC100
     FM282200 06010KT P6SM BKN035 OVC070=

USA.gov is the U.S. government's official web portal to all federal, state and local government web resources and services.